Waialua, HI (96791)

3:19 AM HST on September 19, 2014 (GMT -1000)
GTA - South Range | Change Station
CLOSE
Current Station
Personal Weather Station
Location: Wahiaw%u0101, HI
Elevation: 881 ft
Nearby Weather Stations

Elev 881 ft 21.48 °N, 158.06 °W | Updated 11 minutes ago

Clear
Clear
67.0 °F
Feels Like 67.0 °F
N
2.0
Wind Variable Wind from NW
Gusts 4.0 mph

Today
High -- | Low -- °F
--% Chance of Precip.
Yesterday
High -- | Low -- °F
Precip. -- in
6:20 AM 6:31 PM
Waning Crescent, 19% visible
Pressure 29.94 in
Visibility 10.0 miles
Clouds Clear
Dew Point 66 °F
Humidity 97%
Rainfall 0.00 in
Snow Depth Not available.
UV 0 out of 12
Pollen Not available.
Air Quality Not available.
Flu Activity Not available.
METAR PHHI 191258Z AUTO 32002KT 10SM CLR 21/19 A2994 RMK AO2 SLPNO T02070192 $

More Conditions Fewer Conditions

Pressure 29.94 in
Visibility 10.0 miles
Clouds Clear
Dew Point 66 °F
Humidity 97%
Rainfall 0.00 in
Snow Depth Not available.
UV 0 out of 12
Pollen Not available.
Air Quality Not available.
Flu Activity Not available.
METAR PHHI 191258Z AUTO 32002KT 10SM CLR 21/19 A2994 RMK AO2 SLPNO T02070192 $

More Conditions Fewer Conditions

10-Day Weather Forecast

Almanac

Astronomy

Sep. 19, 2014 Rise Set
Actual Time 6:20 AM HST 6:31 PM HST
Civil Twilight 5:58 AM HST 6:53 PM HST
Nautical Twilight 5:32 AM HST 7:19 PM HST
Astronomical Twilight 5:06 AM HST 7:45 PM HST
Moon 2:39 AM HST 3:46 PM HST
Length of Visible Light 12h 55m
Length of Day
12h 10m
Tomorrow will be 1m 14s shorter.
Waning Crescent, 19% of the Moon is Illuminated
Today
Waning Crescent
Sep 24
New
Oct 1
First Quarter
Oct 8
Full
Oct 15
Last Quarter

Today's Extremes

State Highs State Lows

Community

WunderPhotos

Upload Photos

1,754,606 photos uploaded!

WunderBlogs® & News

Nearby

Snow Depth

Station Depth Elevation
No new snow has been reported.

Earthquake Activity

City Distance Mag. Time & Date
No recent earthquake activity has been reported nearby.
Minimum magnitude displayed is 2.5.

Coastal Water Temperatures

Place Temperature
No Stations Reporting

Nearby Weather Stations